Latest Weather Observations for New May Downs

IDQ60801

Issued at 11:38 pm EST Tuesday 26 July 2016 (issued every 30 minutes, with the page automatically refreshed every 10 minutes)

About weather observations | Map of weather stations | Latest weather observations for QLD | Other Formats
Station Details ID: 037059 Name: NEW MAY DOWNS Lat: -20.59 Lon: 139.34 Height: 392.0 m
Data from the previous 72 hours. | See also: Recent months at New May Downs
Date/Time
EST
Temp
°C
App
Temp
°C
Dew
Point
°C
Rel
Hum
%
Delta-T
°C
Wind Press
QNH
hPa
Press
MSL
hPa
Rain since
9am
mm
Dir  Spd
km/h
Gust
km/h
Spd
kts
Gust
kts
26/11:30pm 15.6 12.2 1.7 39 6.3 S 9 13 5 7 - - 0.0
26/11:00pm 15.7 11.9 1.8 39 6.3 SSE 11 15 6 8 - - 0.0
26/10:30pm 15.9 12.5 1.6 38 6.4 SE 9 15 5 8 - - 0.0
26/10:00pm 16.4 12.1 1.3 36 6.8 SE 13 20 7 11 - - 0.0
26/09:30pm 16.9 12.7 1.4 35 7.0 SSE 13 20 7 11 - - 0.0
26/09:00pm 16.8 13.2 0.9 34 7.1 SE 9 15 5 8 - - 0.0
26/08:30pm 17.6 13.6 0.7 32 7.6 SSE 11 17 6 9 - - 0.0
26/08:00pm 18.1 14.1 0.7 31 7.8 SSE 11 19 6 10 - - 0.0
26/07:30pm 18.8 13.7 0.9 30 8.1 S 17 24 9 13 - - 0.0
26/07:00pm 19.3 14.6 0.8 29 8.4 S 15 22 8 12 - - 0.0
26/06:30pm 19.8 14.2 -0.2 26 9.0 S 19 28 10 15 - - 0.0
26/06:00pm 20.8 15.0 0.1 25 9.4 SSW 20 33 11 18 - - 0.0
26/05:30pm 22.2 17.6 1.3 25 9.8 S 15 24 8 13 - - 0.0
26/05:00pm 22.7 17.9 -0.1 22 10.5 S 15 20 8 11 - - 0.0
26/04:30pm 23.0 18.2 0.2 22 10.6 SSW 15 20 8 11 - - 0.0
26/04:00pm 23.4 18.9 -0.1 21 10.9 S 13 20 7 11 - - 0.0
26/03:30pm 23.5 19.9 0.6 22 10.7 S 9 17 5 9 - - 0.0
26/03:00pm 23.2 19.6 0.9 23 10.5 S 9 19 5 10 - - 0.0
26/02:30pm 23.2 19.6 0.9 23 10.5 SSE 9 17 5 9 - - 0.0
26/02:00pm 23.3 20.2 1.6 24 10.4 ESE 7 17 4 9 - - 0.0
26/01:30pm 21.9 18.5 1.6 26 9.6 S 9 17 5 9 - - 0.0
26/01:00pm 21.9 17.9 2.6 28 9.3 SSE 13 22 7 12 - - 0.0
26/12:30pm 21.4 17.7 2.6 29 9.0 SSE 11 19 6 10 - - 0.0
26/12:00pm 21.0 17.4 2.8 30 8.7 SE 11 19 6 10 - - 0.0
26/11:30am 20.2 16.1 2.5 31 8.4 SE 13 20 7 11 - - 0.0
26/11:00am 19.7 15.3 2.6 32 8.1 ESE 15 22 8 12 - - 0.0
26/10:30am 19.1 14.7 2.9 34 7.7 ESE 15 22 8 12 - - 0.0
26/10:00am 18.4 14.4 2.7 35 7.4 ESE 13 22 7 12 - - 0.0
26/09:30am 17.2 12.7 2.4 37 6.9 SE 15 22 8 12 - - 0.0
26/09:00am 16.1 11.2 1.8 38 6.5 SE 17 26 9 14 - - 0.0
26/08:30am 15.3 11.6 2.1 41 6.0 ESE 11 17 6 9 - - 0.0
26/08:00am 13.2 10.2 2.1 47 4.9 ESE 7 9 4 5 - - 0.0
26/07:30am 11.9 8.4 1.5 49 4.5 ESE 9 9 5 5 - - 0.0
26/07:00am 11.4 8.3 1.4 50 4.3 SE 7 7 4 4 - - 0.0
26/06:30am 11.8 8.7 1.4 49 4.5 SE 7 9 4 5 - - 0.0
26/06:00am 12.1 9.0 1.4 48 4.6 SE 7 9 4 5 - - 0.0
26/05:30am 12.3 9.2 1.3 47 4.8 SE 7 9 4 5 - - 0.0
26/05:00am 12.1 9.0 1.4 48 4.6 ESE 7 7 4 4 - - 0.0
26/04:30am 12.6 9.7 1.3 46 4.9 SSE 6 7 3 4 - - 0.0
26/04:00am 13.1 10.0 1.5 45 5.1 SSE 7 9 4 5 - - 0.0
26/03:30am 13.1 10.1 1.8 46 5.0 SE 7 9 4 5 - - 0.0
26/03:00am 13.4 10.5 1.7 45 5.2 SSE 6 6 3 3 - - 0.0
26/02:30am 13.7 10.8 1.7 44 5.3 SSE 6 7 3 4 - - 0.0
26/02:00am 13.8 10.8 1.8 44 5.3 SE 7 9 4 5 - - 0.0
26/01:30am 13.9 11.0 1.5 43 5.5 SE 6 9 3 5 - - 0.0
26/01:00am 14.2 11.3 1.2 41 5.7 SSE 6 7 3 4 - - 0.0
26/12:30am 14.7 11.6 1.6 41 5.8 SSE 7 9 4 5 - - 0.0
26/12:00am 14.7 11.7 1.9 42 5.7 SSE 7 9 4 5 - - 0.0
 
Date/Time
EST
Temp
°C
App
Temp
°C
Dew
Point
°C
Rel
Hum
%
Delta-T
°C
Wind Press
QNH
hPa
Press
MSL
hPa
Rain since
9am
mm
Dir  Spd
km/h
Gust
km/h
Spd
kts
Gust
kts
25/11:30pm 14.8 11.9 2.4 43 5.6 SE 7 9 4 5 - - 0.0
25/11:00pm 15.3 12.6 2.5 42 5.8 SSE 6 9 3 5 - - 0.0
25/10:30pm 15.7 12.9 3.2 43 5.8 SE 7 9 4 5 - - 0.0
25/10:00pm 16.0 12.9 3.4 43 5.9 SE 9 11 5 6 - - 0.0
25/09:30pm 16.5 13.3 3.2 41 6.2 SE 9 11 5 6 - - 0.0
25/09:00pm 17.4 13.8 3.0 38 6.8 SE 11 15 6 8 - - 0.0
25/08:30pm 18.0 14.4 3.1 37 7.0 SE 11 19 6 10 - - 0.0
25/08:00pm 18.6 15.1 3.6 37 7.2 SSE 11 20 6 11 - - 0.0
25/07:30pm 18.8 15.4 3.8 37 7.2 SSE 11 17 6 9 - - 0.0
25/07:00pm 19.4 16.4 4.0 36 7.5 SSE 9 17 5 9 - - 0.0
25/06:30pm 20.2 16.8 3.9 34 8.0 SE 11 17 6 9 - - 0.0
25/06:00pm 21.1 16.9 3.8 32 8.5 SE 15 22 8 12 - - 0.0
25/05:30pm 21.9 17.3 3.6 30 9.0 SSE 17 24 9 13 - - 0.0
25/05:00pm 22.6 18.3 3.2 28 9.5 SSE 15 24 8 13 - - 0.0
25/04:30pm 22.9 18.2 3.4 28 9.6 SSE 17 26 9 14 - - 0.0
25/04:00pm 23.2 18.6 3.7 28 9.7 SSE 17 24 9 13 - - 0.0
25/03:30pm 23.1 18.9 3.6 28 9.7 SSE 15 24 8 13 - - 0.0
25/03:00pm 23.9 19.8 4.3 28 9.9 SSE 15 24 8 13 - - 0.0
25/02:30pm 22.9 18.2 2.9 27 9.8 SSE 17 24 9 13 - - 0.0
25/02:00pm 23.1 18.8 3.1 27 9.8 SSE 15 22 8 12 - - 0.0
25/01:30pm 22.7 17.9 2.8 27 9.7 SSE 17 26 9 14 - - 0.0
25/01:00pm 22.3 17.9 2.9 28 9.4 SSE 15 24 8 13 - - 0.0
25/12:30pm 22.3 17.6 3.4 29 9.3 SE 17 28 9 15 - - 0.0
25/12:00pm 21.4 16.2 2.6 29 9.0 ESE 19 28 10 15 - - 0.0
25/11:30am 20.7 15.5 2.5 30 8.7 ESE 19 30 10 16 - - 0.0
25/11:00am 19.9 15.0 2.3 31 8.3 ESE 17 26 9 14 - - 0.0
25/10:30am 19.2 13.7 2.1 32 8.0 ESE 20 30 11 16 - - 0.0
25/10:00am 18.3 13.1 2.2 34 7.5 SE 19 30 10 16 - - 0.0
25/09:30am 17.5 11.7 2.3 36 7.0 ESE 22 33 12 18 - - 0.0
25/09:00am 16.8 11.5 2.0 37 6.8 SE 19 28 10 15 - - 0.0
25/08:30am 16.1 10.6 1.8 38 6.5 SE 20 30 11 16 - - 0.0
25/08:00am 15.2 11.6 2.7 43 5.7 SE 11 17 6 9 - - 0.0
25/07:30am 14.2 10.9 2.5 45 5.3 ESE 9 15 5 8 - - 0.0
25/07:00am 14.6 10.5 2.2 43 5.6 ESE 13 17 7 9 - - 0.0
25/06:30am 14.8 10.3 2.4 43 5.6 SE 15 20 8 11 - - 0.0
25/06:00am 14.7 11.0 2.6 44 5.5 SE 11 15 6 8 - - 0.0
25/05:30am 15.2 11.1 2.4 42 5.8 SE 13 19 7 10 - - 0.0
25/05:00am 15.2 11.6 3.0 44 5.6 SE 11 15 6 8 - - 0.0
25/04:30am 16.0 12.1 3.4 43 5.9 SSE 13 20 7 11 - - 0.0
25/04:00am 16.4 12.9 3.5 42 6.1 SSE 11 17 6 9 - - 0.0
25/03:30am 16.3 13.3 4.0 44 5.8 SSE 9 13 5 7 - - 0.0
25/03:00am 16.4 13.8 4.1 44 5.9 SSE 7 11 4 6 - - 0.0
25/02:30am 16.9 13.9 3.9 42 6.2 SE 9 13 5 7 - - 0.0
25/02:00am 17.1 14.1 4.1 42 6.2 SSE 9 13 5 7 - - 0.0
25/01:30am 17.7 14.3 3.9 40 6.6 SSE 11 15 6 8 - - 0.0
25/01:00am 18.0 15.0 4.2 40 6.7 SSE 9 13 5 7 - - 0.0
25/12:30am 18.3 15.4 4.5 40 6.7 SSE 9 17 5 9 - - 0.0
25/12:00am 18.5 15.6 4.7 40 6.8 SSE 9 13 5 7 - - 0.0
 
Date/Time
EST
Temp
°C
App
Temp
°C
Dew
Point
°C
Rel
Hum
%
Delta-T
°C
Wind Press
QNH
hPa
Press
MSL
hPa
Rain since
9am
mm
Dir  Spd
km/h
Gust
km/h
Spd
kts
Gust
kts
24/11:30pm 18.7 16.2 4.8 40 6.8 SE 7 13 4 7 - - 0.0
24/11:00pm 19.1 16.3 5.2 40 6.9 SE 9 17 5 9 - - 0.0
24/10:30pm 19.8 16.7 5.5 39 7.2 SE 11 22 6 12 - - 0.0
24/10:00pm 20.4 16.6 5.6 38 7.5 SE 15 24 8 13 - - 0.0
24/09:30pm 20.8 17.6 6.7 40 7.3 SSE 13 20 7 11 - - 0.0
24/09:00pm 21.5 18.3 7.0 39 7.6 SE 13 19 7 10 - - 0.0
24/08:30pm 22.4 19.2 7.0 37 8.1 SE 13 22 7 12 - - 0.0
24/08:00pm 22.9 20.2 7.4 37 8.2 SE 11 19 6 10 - - 0.0
24/07:30pm 23.8 21.9 7.4 35 8.7 SSE 7 15 4 8 - - 0.0
24/07:00pm 24.3 21.9 7.0 33 9.2 SSE 9 13 5 7 - - 0.0
24/06:30pm 25.4 23.4 6.1 29 10.1 SE 6 9 3 5 - - 0.0
24/06:00pm 27.0 24.9 5.9 26 11.2 SE 6 7 3 4 - - 0.0
24/05:30pm 28.0 25.9 5.6 24 11.8 S 6 11 3 6 - - 0.0
24/05:00pm 28.3 26.0 5.8 24 12.0 SSE 7 15 4 8 - - 0.0
24/04:30pm 29.0 27.0 6.4 24 12.2 SE 6 11 3 6 - - 0.0
24/04:00pm 28.8 26.8 6.2 24 12.1 ESE 6 9 3 5 - - 0.0
24/03:30pm 28.6 26.6 6.1 24 12.0 SSW 6 13 3 7 - - 0.0
24/03:00pm 28.8 27.3 6.8 25 11.9 SE 4 9 2 5 - - 0.0
24/02:30pm 29.3 27.4 6.7 24 12.3 E 6 9 3 5 - - 0.0
24/02:00pm 28.2 26.3 6.9 26 11.5 S 6 13 3 7 - - 0.0
24/01:30pm 28.0 26.2 7.3 27 11.3 SE 6 13 3 7 - - 0.0
24/01:00pm 27.9 26.0 7.7 28 11.1 SE 7 15 4 8 - - 0.0
24/12:30pm 27.4 26.0 8.8 31 10.4 E 6 13 3 7 - - 0.0
24/12:00pm 26.6 25.1 9.0 33 9.8 ENE 7 13 4 7 - - 0.0
24/11:30am 25.6 23.8 8.1 33 9.5 E 7 13 4 7 - - 0.0
24/11:00am 24.0 21.3 7.2 34 8.9 ESE 11 15 6 8 - - 0.0
24/10:30am 23.1 20.7 6.8 35 8.6 E 9 13 5 7 - - 0.0
24/10:00am 21.7 18.5 5.2 34 8.3 E 11 17 6 9 - - 0.0
24/09:30am 20.1 16.3 3.8 34 7.9 ESE 13 19 7 10 - - 0.0
24/09:00am 19.2 16.1 3.8 36 7.4 ESE 9 13 5 7 - - 0.0
24/08:30am 17.7 15.2 4.6 42 6.4 E 7 11 4 6 - - 0.0
24/08:00am 15.6 12.9 3.7 45 5.6 SE 7 11 4 6 - - 0.0
24/07:30am 15.2 12.2 4.0 47 5.3 E 9 11 5 6 - - 0.0
24/07:00am 14.3 11.7 4.0 50 4.8 ENE 7 9 4 5 - - 0.0
24/06:30am 14.3 11.3 4.3 51 4.7 ENE 9 11 5 6 - - 0.0
24/06:00am 14.3 11.8 4.6 52 4.6 ENE 7 9 4 5 - - 0.0
24/05:30am 14.2 11.7 4.5 52 4.6 SE 7 7 4 4 - - 0.0
24/05:00am 14.5 12.0 4.5 51 4.7 ESE 7 9 4 5 - - 0.0
24/04:30am 14.9 12.4 4.6 50 4.9 SE 7 9 4 5 - - 0.0
24/04:00am 14.9 12.4 4.6 50 4.9 E 7 9 4 5 - - 0.0
24/03:30am 15.4 13.0 4.5 48 5.2 ESE 6 7 3 4 - - 0.0
24/03:00am 15.5 13.0 4.6 48 5.2 SE 7 9 4 5 - - 0.0
24/02:30am 15.9 12.9 4.3 46 5.5 SE 9 11 5 6 - - 0.0
24/02:00am 16.3 13.8 5.0 47 5.5 SE 7 9 4 5 - - 0.0
24/01:30am 16.4 13.6 5.1 47 5.5 SE 9 13 5 7 - - 0.0
24/01:00am 16.2 13.5 5.5 49 5.2 SE 9 13 5 7 - - 0.0
24/12:30am 16.6 13.9 5.6 48 5.4 SSE 9 11 5 6 - - 0.0
24/12:00am 16.8 14.4 5.4 47 5.6 E 7 9 4 5 - - 0.0

Other Formats:

Comma delimited format used in spreadsheet applications
http://www.bom.gov.au/fwo/IDQ60801/IDQ60801.94349.axf

JavaScript Object Notation format (JSON) in row-major order
http://www.bom.gov.au/fwo/IDQ60801/IDQ60801.94349.json